createdAt,value
2024-02-15T00:00:29.365Z,928.75
2024-02-15T00:01:29.948Z,928.75
2024-02-15T00:02:29.286Z,928.75
2024-02-15T00:03:29.286Z,928.75
2024-02-15T00:04:29.334Z,928.72
2024-02-15T00:05:29.317Z,928.71
2024-02-15T00:06:29.260Z,928.76
2024-02-15T00:07:29.785Z,928.76
2024-02-15T00:08:29.206Z,928.75
2024-02-15T00:09:29.240Z,928.76
2024-02-15T00:10:29.284Z,928.76
2024-02-15T00:11:29.308Z,928.78
2024-02-15T00:12:29.293Z,928.77
2024-02-15T00:13:29.370Z,928.77
2024-02-15T00:14:29.136Z,928.75
2024-02-15T00:15:29.162Z,928.74
2024-02-15T00:16:29.145Z,928.77
2024-02-15T00:17:29.234Z,928.80
2024-02-15T00:18:29.215Z,928.80
2024-02-15T00:19:29.269Z,928.81
2024-02-15T00:20:29.172Z,928.83
2024-02-15T00:21:29.163Z,928.83
2024-02-15T00:22:29.031Z,928.80
2024-02-15T00:23:29.124Z,928.81
2024-02-15T00:24:29.088Z,928.83
2024-02-15T00:25:29.278Z,928.83
2024-02-15T00:26:29.011Z,928.82
2024-02-15T00:27:29.007Z,928.79
2024-02-15T00:28:28.968Z,928.81
2024-02-15T00:29:29.106Z,928.81
2024-02-15T00:30:28.980Z,928.85
2024-02-15T00:31:29.207Z,928.81
2024-02-15T00:32:29.001Z,928.85
2024-02-15T00:33:29.689Z,928.85
2024-02-15T00:34:28.985Z,928.86
2024-02-15T00:35:29.038Z,928.87
2024-02-15T00:36:28.994Z,928.88
2024-02-15T00:37:29.036Z,928.92
2024-02-15T00:38:29.096Z,928.93
2024-02-15T00:39:28.890Z,928.96
2024-02-15T00:40:28.808Z,928.92
2024-02-15T00:41:28.937Z,928.89
2024-02-15T00:42:28.909Z,928.89
2024-02-15T00:43:28.866Z,928.87
2024-02-15T00:44:29.030Z,928.87
2024-02-15T00:45:29.023Z,928.86
2024-02-15T00:46:28.820Z,928.86
2024-02-15T00:47:28.852Z,928.85
2024-02-15T00:48:28.877Z,928.83
2024-02-15T00:49:28.887Z,928.83
2024-02-15T00:50:29.006Z,928.84
2024-02-15T00:51:28.796Z,928.87
2024-02-15T00:52:28.749Z,928.86
2024-02-15T00:53:28.848Z,928.87
2024-02-15T00:54:28.664Z,928.87
2024-02-15T00:55:28.948Z,928.94
2024-02-15T00:56:28.820Z,928.84
2024-02-15T00:57:28.697Z,928.91
2024-02-15T00:58:28.696Z,928.96
2024-02-15T00:59:28.664Z,928.92
2024-02-15T01:00:28.614Z,928.84
2024-02-15T01:01:28.745Z,929.01
2024-02-15T01:02:28.693Z,928.97
2024-02-15T01:03:28.655Z,929.00
2024-02-15T01:04:28.572Z,929.03
2024-02-15T01:05:28.656Z,928.99
2024-02-15T01:06:28.675Z,929.10
2024-02-15T01:07:28.906Z,929.12
2024-02-15T01:08:28.577Z,929.11
2024-02-15T01:09:28.556Z,929.12
2024-02-15T01:10:28.525Z,929.14
2024-02-15T01:11:28.675Z,929.14
2024-02-15T01:12:28.531Z,929.15
2024-02-15T01:13:28.700Z,929.20
2024-02-15T01:14:28.555Z,929.18
2024-02-15T01:15:28.515Z,929.20
2024-02-15T01:16:28.420Z,929.23
2024-02-15T01:17:28.588Z,929.19
2024-02-15T01:18:28.610Z,929.18
2024-02-15T01:19:28.735Z,929.21
2024-02-15T01:20:28.466Z,929.18
2024-02-15T01:21:28.441Z,929.19
2024-02-15T01:22:28.490Z,929.25
2024-02-15T01:23:28.412Z,929.15
2024-02-15T01:24:28.370Z,929.17
2024-02-15T01:25:28.481Z,929.18
2024-02-15T01:26:28.449Z,929.19
2024-02-15T01:27:28.395Z,929.15
2024-02-15T01:28:28.326Z,929.16
2024-02-15T01:29:28.423Z,929.18
2024-02-15T01:30:28.441Z,929.18
2024-02-15T01:31:28.307Z,929.21
2024-02-15T01:32:28.408Z,929.22
2024-02-15T01:33:28.810Z,929.20
2024-02-15T01:34:28.548Z,929.18
2024-02-15T01:35:28.235Z,929.21
2024-02-15T01:36:28.338Z,929.20
2024-02-15T01:37:28.248Z,929.22
2024-02-15T01:38:28.406Z,929.18
2024-02-15T01:39:28.297Z,929.23
2024-02-15T01:40:28.200Z,929.25
2024-02-15T01:41:28.188Z,929.28
2024-02-15T01:42:28.269Z,929.24
2024-02-15T01:43:28.187Z,929.25
2024-02-15T01:44:28.199Z,929.27
2024-02-15T01:45:28.180Z,929.24
2024-02-15T01:46:28.206Z,929.25
2024-02-15T01:47:28.853Z,929.24
2024-02-15T01:48:28.296Z,929.26
2024-02-15T01:49:28.146Z,929.24
2024-02-15T01:50:28.089Z,929.24
2024-02-15T01:51:28.092Z,929.26
2024-02-15T01:52:28.148Z,929.25
2024-02-15T01:53:28.260Z,929.25
2024-02-15T01:54:28.281Z,929.27
2024-02-15T01:55:28.067Z,929.26
2024-02-15T01:56:28.060Z,929.27
2024-02-15T01:57:28.062Z,929.28
2024-02-15T01:58:28.049Z,929.28
2024-02-15T01:59:27.947Z,929.28
2024-02-15T02:00:28.061Z,929.30
2024-02-15T02:01:27.996Z,929.26
2024-02-15T02:02:28.006Z,929.23
2024-02-15T02:03:28.032Z,929.19
2024-02-15T02:04:28.013Z,929.20
2024-02-15T02:05:27.928Z,929.18
2024-02-15T02:06:28.210Z,929.16
2024-02-15T02:07:27.893Z,929.15
2024-02-15T02:08:27.945Z,929.15
2024-02-15T02:09:27.908Z,929.15
2024-02-15T02:10:27.908Z,929.14
2024-02-15T02:11:27.821Z,929.14
2024-02-15T02:12:28.146Z,929.11
2024-02-15T02:13:29.342Z,929.12
2024-02-15T02:14:27.875Z,929.15
2024-02-15T02:15:27.840Z,929.08
2024-02-15T02:16:27.846Z,929.07
2024-02-15T02:17:27.829Z,929.04
2024-02-15T02:18:28.226Z,929.06
2024-02-15T02:19:27.809Z,929.04
2024-02-15T02:20:27.826Z,929.03
2024-02-15T02:21:27.865Z,929.03
2024-02-15T02:22:27.785Z,929.04
2024-02-15T02:23:28.083Z,929.06
2024-02-15T02:24:27.830Z,929.05
2024-02-15T02:25:27.712Z,929.02
2024-02-15T02:26:27.711Z,929.05
2024-02-15T02:27:27.770Z,929.02
2024-02-15T02:28:27.721Z,929.04
2024-02-15T02:29:27.743Z,929.04
2024-02-15T02:30:27.872Z,929.04
2024-02-15T02:31:27.647Z,929.02
2024-02-15T02:32:27.666Z,929.01
2024-02-15T02:33:27.738Z,929.01
2024-02-15T02:34:27.733Z,928.98
2024-02-15T02:35:28.297Z,929.00
2024-02-15T02:36:27.882Z,928.99
2024-02-15T02:37:27.682Z,928.96
2024-02-15T02:38:27.605Z,928.94
2024-02-15T02:39:27.659Z,928.95
2024-02-15T02:40:27.507Z,928.92
2024-02-15T02:41:27.527Z,928.90
2024-02-15T02:42:27.637Z,928.90
2024-02-15T02:43:27.525Z,928.86
2024-02-15T02:44:27.516Z,928.88
2024-02-15T02:45:27.544Z,928.84
2024-02-15T02:46:27.445Z,928.85
2024-02-15T02:47:27.482Z,928.84
2024-02-15T02:48:27.861Z,928.84
2024-02-15T02:49:27.569Z,928.83
2024-02-15T02:50:27.458Z,928.81
2024-02-15T02:51:27.469Z,928.81
2024-02-15T02:52:27.460Z,928.83
2024-02-15T02:53:27.581Z,928.80
2024-02-15T02:54:27.789Z,928.79
2024-02-15T02:55:27.405Z,928.78
2024-02-15T02:56:27.500Z,928.76
2024-02-15T02:57:27.414Z,928.74
2024-02-15T02:58:27.419Z,928.74
2024-02-15T02:59:27.328Z,928.73
2024-02-15T03:00:27.338Z,928.72
2024-02-15T03:01:27.347Z,928.73
2024-02-15T03:02:27.347Z,928.72
2024-02-15T03:03:27.342Z,928.71
2024-02-15T03:04:27.382Z,928.70
2024-02-15T03:05:27.262Z,928.70
2024-02-15T03:06:27.471Z,928.67
2024-02-15T03:07:27.209Z,928.69
2024-02-15T03:08:27.258Z,928.68
2024-02-15T03:09:27.283Z,928.65
2024-02-15T03:10:27.298Z,928.63
2024-02-15T03:11:27.208Z,928.65
2024-02-15T03:12:27.208Z,928.65
2024-02-15T03:13:27.199Z,928.61
2024-02-15T03:14:27.244Z,928.62
2024-02-15T03:15:27.202Z,928.61
2024-02-15T03:16:27.224Z,928.59
2024-02-15T03:17:27.295Z,928.59
2024-02-15T03:18:27.194Z,928.58
2024-02-15T03:19:27.177Z,928.56
2024-02-15T03:20:27.143Z,928.55
2024-02-15T03:21:27.170Z,928.53
2024-02-15T03:22:27.284Z,928.52
2024-02-15T03:23:27.082Z,928.51
2024-02-15T03:24:27.086Z,928.50
2024-02-15T03:25:27.311Z,928.48
2024-02-15T03:26:27.075Z,928.46
2024-02-15T03:27:27.097Z,928.45
2024-02-15T03:28:27.323Z,928.44
2024-02-15T03:29:27.029Z,928.42
2024-02-15T03:30:27.057Z,928.41
2024-02-15T03:31:27.029Z,928.41
2024-02-15T03:32:27.050Z,928.40
2024-02-15T03:33:27.175Z,928.39
2024-02-15T03:34:27.433Z,928.38
2024-02-15T03:35:26.967Z,928.35
2024-02-15T03:36:26.972Z,928.35
2024-02-15T03:37:26.891Z,928.34
2024-02-15T03:38:26.984Z,928.29
2024-02-15T03:39:26.970Z,928.29
2024-02-15T03:40:26.870Z,928.30
2024-02-15T03:41:27.403Z,928.29
2024-02-15T03:42:26.897Z,928.28
2024-02-15T03:43:27.021Z,928.25
2024-02-15T03:44:26.843Z,928.26
2024-02-15T03:45:27.643Z,928.23
2024-02-15T03:46:26.831Z,928.21
2024-02-15T03:47:26.963Z,928.20
2024-02-15T03:48:26.878Z,928.19
2024-02-15T03:50:00.786Z,928.17
2024-02-15T03:50:26.825Z,928.17
2024-02-15T03:51:27.271Z,928.16
2024-02-15T03:52:26.768Z,928.19
2024-02-15T03:53:26.789Z,928.15
2024-02-15T03:54:26.890Z,928.15
2024-02-15T03:55:27.011Z,928.15
2024-02-15T03:56:26.931Z,928.13
2024-02-15T03:57:26.796Z,928.12
2024-02-15T03:58:26.699Z,928.12
2024-02-15T03:59:26.913Z,928.11
2024-02-15T04:00:27.276Z,928.10
2024-02-15T04:01:26.766Z,928.09
2024-02-15T04:02:26.745Z,928.09
2024-02-15T04:03:26.861Z,928.09
2024-02-15T04:04:26.792Z,928.07
2024-02-15T04:05:26.632Z,928.06
2024-02-15T04:06:27.053Z,928.05
2024-02-15T04:07:26.650Z,928.04
2024-02-15T04:08:26.668Z,928.04
2024-02-15T04:09:26.728Z,928.01
2024-02-15T04:10:26.964Z,927.98
2024-02-15T04:11:26.587Z,927.98
2024-02-15T04:12:26.586Z,927.98
2024-02-15T04:13:26.596Z,927.97
2024-02-15T04:14:26.697Z,927.95
2024-02-15T04:15:26.619Z,927.94
2024-02-15T04:16:26.518Z,927.93
2024-02-15T04:17:26.545Z,927.92
2024-02-15T04:18:26.575Z,927.90
2024-02-15T04:19:26.569Z,927.87
2024-02-15T04:20:26.541Z,927.85
2024-02-15T04:21:26.672Z,927.85
2024-02-15T04:22:26.443Z,927.83
2024-02-15T04:23:26.472Z,927.83
2024-02-15T04:24:26.465Z,927.81
2024-02-15T04:25:26.472Z,927.81
2024-02-15T04:26:26.469Z,927.80
2024-02-15T04:27:26.388Z,927.77
2024-02-15T04:28:26.380Z,927.77
2024-02-15T04:29:27.053Z,927.76
2024-02-15T04:30:26.699Z,927.71
2024-02-15T04:31:26.568Z,927.68
2024-02-15T04:32:26.534Z,927.64
2024-02-15T04:33:26.426Z,927.64
2024-02-15T04:34:26.426Z,927.63
2024-02-15T04:35:26.356Z,927.62
2024-02-15T04:36:26.357Z,927.60
2024-02-15T04:37:26.441Z,927.57
2024-02-15T04:38:26.365Z,927.54
2024-02-15T04:39:26.354Z,927.52
2024-02-15T04:40:26.253Z,927.51
2024-02-15T04:41:26.369Z,927.49
2024-02-15T04:42:26.388Z,927.49
2024-02-15T04:43:26.741Z,927.47
2024-02-15T04:44:26.196Z,927.47
2024-02-15T04:45:26.305Z,927.46
2024-02-15T04:46:26.202Z,927.45
2024-02-15T04:47:26.243Z,927.43
2024-02-15T04:48:26.331Z,927.43
2024-02-15T04:49:26.261Z,927.42
2024-02-15T04:50:26.240Z,927.41
2024-02-15T04:51:26.142Z,927.40
2024-02-15T04:52:26.135Z,927.38
2024-02-15T04:53:26.140Z,927.38
2024-02-15T04:54:26.150Z,927.39
2024-02-15T04:55:26.072Z,927.40
2024-02-15T04:56:26.157Z,927.39
2024-02-15T04:57:26.087Z,927.41
2024-02-15T04:58:26.067Z,927.42
2024-02-15T04:59:26.099Z,927.41
2024-02-15T05:00:26.112Z,927.40
2024-02-15T05:01:26.093Z,927.40
2024-02-15T05:02:26.102Z,927.40
2024-02-15T05:03:26.012Z,927.39
2024-02-15T05:04:25.987Z,927.38
2024-02-15T05:05:26.166Z,927.37
2024-02-15T05:06:26.097Z,927.37
2024-02-15T05:07:25.966Z,927.37
2024-02-15T05:08:25.936Z,927.37
2024-02-15T05:09:25.919Z,927.36
2024-02-15T05:10:25.916Z,927.35
2024-02-15T05:11:25.892Z,927.32
2024-02-15T05:12:25.959Z,927.31
2024-02-15T05:13:25.870Z,927.28
2024-02-15T05:14:25.909Z,927.27
2024-02-15T05:15:26.210Z,927.27
2024-02-15T05:16:25.891Z,927.26
2024-02-15T05:17:25.872Z,927.26
2024-02-15T05:18:25.918Z,927.26
2024-02-15T05:19:25.998Z,927.24
2024-02-15T05:20:25.817Z,927.25
2024-02-15T05:21:25.826Z,927.23
2024-02-15T05:22:25.876Z,927.23
2024-02-15T05:23:25.868Z,927.20
2024-02-15T05:24:25.744Z,927.23
2024-02-15T05:25:26.776Z,927.22
2024-02-15T05:26:25.843Z,927.23
2024-02-15T05:27:25.733Z,927.21
2024-02-15T05:28:25.857Z,927.19
2024-02-15T05:29:25.698Z,927.19
2024-02-15T05:30:25.690Z,927.18
2024-02-15T05:31:25.978Z,927.18
2024-02-15T05:32:25.942Z,927.16
2024-02-15T05:33:25.850Z,927.16
2024-02-15T05:34:27.764Z,927.14
2024-02-15T05:35:26.427Z,927.13
2024-02-15T05:36:25.748Z,927.10
2024-02-15T05:37:25.647Z,927.08
2024-02-15T05:38:25.708Z,927.07
2024-02-15T05:39:25.719Z,927.06
2024-02-15T05:40:25.695Z,927.05
2024-02-15T05:41:25.930Z,927.05
2024-02-15T05:42:25.653Z,927.06
2024-02-15T05:43:25.634Z,927.07
2024-02-15T05:44:25.520Z,927.08
2024-02-15T05:45:25.559Z,927.07
2024-02-15T05:46:25.577Z,927.06
2024-02-15T05:47:25.596Z,927.06
2024-02-15T05:48:25.719Z,927.06
2024-02-15T05:49:25.662Z,927.05
2024-02-15T05:50:25.836Z,927.05
2024-02-15T05:51:25.582Z,927.04
2024-02-15T05:52:25.499Z,927.02
2024-02-15T05:53:25.590Z,927.01
2024-02-15T05:54:25.511Z,927.01
2024-02-15T05:55:25.528Z,927.00
2024-02-15T05:56:25.434Z,927.00
2024-02-15T05:57:25.457Z,927.00
2024-02-15T05:58:25.442Z,927.03
2024-02-15T05:59:25.534Z,927.04
2024-02-15T06:00:25.564Z,927.03
2024-02-15T06:01:25.672Z,927.04
2024-02-15T06:02:25.410Z,927.05
2024-02-15T06:03:25.568Z,927.04
2024-02-15T06:04:25.530Z,927.03
2024-02-15T06:05:25.604Z,927.03
2024-02-15T06:06:25.469Z,927.02
2024-02-15T06:07:25.671Z,927.03
2024-02-15T06:08:25.287Z,927.04
2024-02-15T06:09:25.317Z,927.05
2024-02-15T06:10:25.394Z,927.07
2024-02-15T06:11:25.260Z,927.03
2024-02-15T06:12:25.320Z,927.07
2024-02-15T06:13:25.318Z,927.07
2024-02-15T06:14:25.253Z,927.06
2024-02-15T06:15:25.364Z,927.06
2024-02-15T06:16:25.267Z,927.08
2024-02-15T06:17:25.308Z,927.06
2024-02-15T06:18:25.499Z,927.03
2024-02-15T06:19:25.410Z,927.06
2024-02-15T06:20:25.189Z,927.07
2024-02-15T06:21:25.262Z,927.04
2024-02-15T06:22:25.238Z,927.08
2024-02-15T06:23:25.193Z,927.08
2024-02-15T06:24:25.302Z,927.07
2024-02-15T06:25:25.202Z,927.07
2024-02-15T06:26:25.168Z,927.05
2024-02-15T06:27:25.188Z,927.05
2024-02-15T06:28:25.073Z,927.04
2024-02-15T06:29:25.057Z,927.01
2024-02-15T06:30:25.087Z,927.04
2024-02-15T06:31:25.073Z,927.06
2024-02-15T06:32:25.050Z,927.08
2024-02-15T06:33:25.293Z,927.10
2024-02-15T06:34:25.116Z,927.12
2024-02-15T06:35:24.997Z,927.11
2024-02-15T06:36:25.306Z,927.11
2024-02-15T06:37:24.933Z,927.13
2024-02-15T06:38:24.939Z,927.13
2024-02-15T06:39:25.084Z,927.13
2024-02-15T06:40:24.989Z,927.13
2024-02-15T06:41:27.339Z,927.13
2024-02-15T06:42:25.023Z,927.11
2024-02-15T06:43:24.893Z,927.11
2024-02-15T06:44:24.924Z,927.10
2024-02-15T06:45:24.988Z,927.11
2024-02-15T06:46:24.983Z,927.13
2024-02-15T06:47:24.957Z,927.15
2024-02-15T06:48:25.052Z,927.11
2024-02-15T06:49:24.955Z,927.12
2024-02-15T06:50:24.842Z,927.12
2024-02-15T06:51:24.925Z,927.11
2024-02-15T06:52:24.906Z,927.13
2024-02-15T06:53:24.884Z,927.12
2024-02-15T06:54:24.867Z,927.11
2024-02-15T06:55:24.833Z,927.11
2024-02-15T06:56:24.796Z,927.15
2024-02-15T06:57:24.875Z,927.13
2024-02-15T06:58:24.954Z,927.14
2024-02-15T06:59:24.740Z,927.14
2024-02-15T07:00:24.930Z,927.14
2024-02-15T07:01:24.753Z,927.14
2024-02-15T07:02:24.778Z,927.15
2024-02-15T07:03:24.786Z,927.15
2024-02-15T07:04:24.927Z,927.16
2024-02-15T07:05:24.697Z,927.15
2024-02-15T07:06:24.779Z,927.13
2024-02-15T07:07:24.731Z,927.15
2024-02-15T07:08:24.712Z,927.15
2024-02-15T07:09:24.743Z,927.12
2024-02-15T07:10:24.742Z,927.16
2024-02-15T07:11:24.787Z,927.16
2024-02-15T07:12:24.716Z,927.16
2024-02-15T07:13:24.638Z,927.16
2024-02-15T07:14:24.657Z,927.17
2024-02-15T07:15:24.791Z,927.18
2024-02-15T07:16:25.489Z,927.17
2024-02-15T07:17:24.577Z,927.15
2024-02-15T07:18:28.911Z,927.18
2024-02-15T07:19:24.800Z,927.17
2024-02-15T07:20:24.684Z,927.17
2024-02-15T07:21:24.626Z,927.18
2024-02-15T07:22:24.679Z,927.18
2024-02-15T07:23:24.489Z,927.18
2024-02-15T07:24:24.579Z,927.21
2024-02-15T07:25:24.518Z,927.21
2024-02-15T07:26:24.513Z,927.19
2024-02-15T07:27:24.469Z,927.21
2024-02-15T07:28:24.443Z,927.21
2024-02-15T07:29:24.434Z,927.22
2024-02-15T07:30:26.341Z,927.23
2024-02-15T07:31:24.463Z,927.23
2024-02-15T07:32:24.526Z,927.24
2024-02-15T07:33:25.824Z,927.24
2024-02-15T07:34:24.497Z,927.24
2024-02-15T07:35:24.356Z,927.24
2024-02-15T07:36:24.483Z,927.24
2024-02-15T07:37:24.380Z,927.26
2024-02-15T07:38:24.537Z,927.21
2024-02-15T07:39:25.273Z,927.23
2024-02-15T07:40:24.415Z,927.26
2024-02-15T07:41:24.328Z,927.26
2024-02-15T07:42:24.362Z,927.27
2024-02-15T07:43:24.326Z,927.31
2024-02-15T07:44:24.331Z,927.24
2024-02-15T07:45:24.266Z,927.30
2024-02-15T07:46:24.260Z,927.30
2024-02-15T07:47:24.264Z,927.30
2024-02-15T07:48:24.390Z,927.33
2024-02-15T07:49:24.345Z,927.29
2024-02-15T07:50:24.508Z,927.30
2024-02-15T07:51:24.442Z,927.25
2024-02-15T07:52:24.187Z,927.36
2024-02-15T07:53:24.171Z,927.31
2024-02-15T07:54:24.264Z,927.33
2024-02-15T07:55:24.205Z,927.36
2024-02-15T07:56:24.218Z,927.32
2024-02-15T07:57:24.141Z,927.35
2024-02-15T07:58:24.098Z,927.37
2024-02-15T07:59:24.132Z,927.42
2024-02-15T08:00:24.195Z,927.37
2024-02-15T08:01:25.559Z,927.38
2024-02-15T08:02:24.144Z,927.42
2024-02-15T08:03:24.101Z,927.44
2024-02-15T08:04:24.102Z,927.47
2024-02-15T08:05:24.163Z,927.49
2024-02-15T08:06:24.112Z,927.50
2024-02-15T08:07:24.239Z,927.51
2024-02-15T08:08:24.043Z,927.48
2024-02-15T08:09:24.049Z,927.53
2024-02-15T08:10:23.998Z,927.52
2024-02-15T08:11:23.968Z,927.52
2024-02-15T08:12:24.041Z,927.56
2024-02-15T08:13:23.913Z,927.53
2024-02-15T08:14:23.908Z,927.55
2024-02-15T08:15:23.940Z,927.55
2024-02-15T08:16:23.951Z,927.56
2024-02-15T08:17:23.877Z,927.57
2024-02-15T08:18:24.020Z,927.59
2024-02-15T08:19:23.988Z,927.60
2024-02-15T08:20:23.846Z,927.56
2024-02-15T08:21:23.916Z,927.62
2024-02-15T08:22:23.860Z,927.66
2024-02-15T08:23:23.858Z,927.66
2024-02-15T08:24:23.858Z,927.67
2024-02-15T08:25:23.829Z,927.67
2024-02-15T08:26:23.762Z,927.69
2024-02-15T08:27:24.009Z,927.74
2024-02-15T08:28:25.753Z,927.76
2024-02-15T08:29:23.804Z,927.78
2024-02-15T08:30:25.401Z,927.77
2024-02-15T08:31:23.810Z,927.80
2024-02-15T08:32:23.792Z,927.81
2024-02-15T08:33:23.872Z,927.81
2024-02-15T08:34:23.784Z,927.83
2024-02-15T08:35:23.893Z,927.83
2024-02-15T08:36:23.857Z,927.85
2024-02-15T08:37:23.797Z,927.88
2024-02-15T08:38:23.701Z,927.87
2024-02-15T08:39:23.730Z,927.88
2024-02-15T08:40:23.692Z,927.85
2024-02-15T08:41:23.696Z,927.86
2024-02-15T08:42:23.773Z,927.88
2024-02-15T08:43:23.698Z,927.88
2024-02-15T08:44:23.612Z,927.90
2024-02-15T08:45:24.165Z,927.91
2024-02-15T08:46:23.703Z,927.94
2024-02-15T08:47:23.567Z,927.93
2024-02-15T08:48:24.011Z,927.95
2024-02-15T08:49:23.653Z,927.98
2024-02-15T08:50:23.556Z,927.96
2024-02-15T08:51:24.962Z,927.95
2024-02-15T08:52:23.588Z,927.94
2024-02-15T08:53:23.580Z,927.99
2024-02-15T08:54:23.520Z,927.96
2024-02-15T08:55:23.483Z,927.94
2024-02-15T08:56:23.510Z,927.93
2024-02-15T08:57:23.524Z,927.94
2024-02-15T08:58:23.501Z,927.97
2024-02-15T08:59:23.402Z,927.98
2024-02-15T09:00:23.613Z,928.00
2024-02-15T09:01:23.507Z,928.00
2024-02-15T09:02:23.405Z,928.03
2024-02-15T09:03:23.399Z,928.04
2024-02-15T09:04:23.450Z,928.03
2024-02-15T09:05:23.408Z,928.06
2024-02-15T09:06:23.564Z,928.05
2024-02-15T09:07:23.311Z,928.08
2024-02-15T09:08:23.377Z,928.06
2024-02-15T09:09:23.384Z,928.08
2024-02-15T09:10:23.364Z,928.08
2024-02-15T09:11:23.321Z,928.10
2024-02-15T09:12:23.309Z,928.13
2024-02-15T09:13:23.284Z,928.13
2024-02-15T09:14:23.207Z,928.18
2024-02-15T09:15:23.288Z,928.15
2024-02-15T09:16:23.217Z,928.15
2024-02-15T09:17:23.204Z,928.16
2024-02-15T09:18:23.410Z,928.16
2024-02-15T09:19:23.197Z,928.17
2024-02-15T09:20:23.185Z,928.18
2024-02-15T09:21:23.263Z,928.17
2024-02-15T09:22:23.144Z,928.20
2024-02-15T09:23:23.143Z,928.18
2024-02-15T09:24:23.257Z,928.19
2024-02-15T09:25:23.077Z,928.16
2024-02-15T09:26:23.091Z,928.19
2024-02-15T09:27:23.132Z,928.20
2024-02-15T09:28:23.714Z,928.19
2024-02-15T09:29:23.102Z,928.24
2024-02-15T09:30:23.127Z,928.22
2024-02-15T09:31:23.048Z,928.19
2024-02-15T09:32:23.063Z,928.23
2024-02-15T09:33:23.171Z,928.23
2024-02-15T09:34:23.121Z,928.23
2024-02-15T09:35:23.155Z,928.25
2024-02-15T09:36:23.070Z,928.26
2024-02-15T09:37:22.989Z,928.26
2024-02-15T09:38:22.986Z,928.29
2024-02-15T09:39:22.926Z,928.32
2024-02-15T09:40:23.026Z,928.29
2024-02-15T09:41:23.019Z,928.31
2024-02-15T09:42:22.977Z,928.33
2024-02-15T09:43:22.950Z,928.33
2024-02-15T09:44:22.968Z,928.34
2024-02-15T09:45:22.989Z,928.37
2024-02-15T09:46:22.911Z,928.38
2024-02-15T09:47:22.855Z,928.37
2024-02-15T09:48:22.972Z,928.39
2024-02-15T09:49:22.960Z,928.39
2024-02-15T09:50:23.334Z,928.40
2024-02-15T09:51:22.898Z,928.41
2024-02-15T09:52:22.839Z,928.42
2024-02-15T09:53:22.809Z,928.42
2024-02-15T09:54:22.837Z,928.46
2024-02-15T09:55:22.754Z,928.46
2024-02-15T09:56:22.779Z,928.46
2024-02-15T09:57:22.779Z,928.48
2024-02-15T09:58:22.778Z,928.50
2024-02-15T09:59:22.761Z,928.55
2024-02-15T10:00:22.798Z,928.51
2024-02-15T10:01:22.728Z,928.52
2024-02-15T10:02:22.748Z,928.56
2024-02-15T10:03:22.888Z,928.54
2024-02-15T10:04:22.741Z,928.57
2024-02-15T10:05:22.729Z,928.56
2024-02-15T10:06:22.729Z,928.58
2024-02-15T10:07:22.637Z,928.60
2024-02-15T10:08:22.731Z,928.62
2024-02-15T10:09:22.653Z,928.65
2024-02-15T10:10:22.636Z,928.64
2024-02-15T10:11:22.776Z,928.63
2024-02-15T10:12:22.615Z,928.69
2024-02-15T10:13:22.608Z,928.69
2024-02-15T10:14:22.616Z,928.68
2024-02-15T10:15:23.673Z,928.68
2024-02-15T10:16:22.551Z,928.71
2024-02-15T10:17:22.607Z,928.71
2024-02-15T10:18:22.603Z,928.72
2024-02-15T10:19:22.621Z,928.73
2024-02-15T10:20:22.683Z,928.78
2024-02-15T10:21:22.588Z,928.74
2024-02-15T10:22:22.477Z,928.78
2024-02-15T10:23:22.481Z,928.80
2024-02-15T10:24:22.448Z,928.80
2024-02-15T10:25:22.477Z,928.78
2024-02-15T10:26:22.478Z,928.81
2024-02-15T10:27:22.454Z,928.82
2024-02-15T10:28:22.422Z,928.80
2024-02-15T10:29:22.448Z,928.81
2024-02-15T10:30:22.484Z,928.83
2024-02-15T10:31:22.376Z,928.85
2024-02-15T10:32:22.476Z,928.89
2024-02-15T10:33:22.553Z,928.89
2024-02-15T10:34:22.577Z,928.93
2024-02-15T10:35:22.575Z,928.89
2024-02-15T10:36:22.452Z,928.90
2024-02-15T10:37:22.313Z,928.92
2024-02-15T10:38:22.377Z,928.92
2024-02-15T10:39:22.563Z,928.93
2024-02-15T10:40:22.384Z,928.94
2024-02-15T10:41:22.289Z,928.94
2024-02-15T10:42:22.370Z,928.95
2024-02-15T10:43:22.299Z,928.98
2024-02-15T10:44:22.398Z,928.97
2024-02-15T10:45:22.305Z,928.99
2024-02-15T10:46:22.248Z,929.02
2024-02-15T10:47:22.471Z,929.01
2024-02-15T10:48:22.408Z,929.04
2024-02-15T10:49:22.659Z,929.04
2024-02-15T10:50:22.201Z,929.08
2024-02-15T10:51:22.290Z,929.08
2024-02-15T10:52:22.173Z,929.07
2024-02-15T10:53:22.171Z,929.08
2024-02-15T10:54:22.205Z,929.08
2024-02-15T10:55:22.178Z,929.09
2024-02-15T10:56:22.106Z,929.09
2024-02-15T10:57:22.169Z,929.10
2024-02-15T10:58:22.098Z,929.14
2024-02-15T10:59:22.200Z,929.09
2024-02-15T11:00:22.174Z,929.10
2024-02-15T11:01:22.170Z,929.13
2024-02-15T11:02:22.142Z,929.14
2024-02-15T11:03:22.085Z,929.13
2024-02-15T11:04:22.031Z,929.14
2024-02-15T11:05:22.191Z,929.14
2024-02-15T11:06:22.214Z,929.17
2024-02-15T11:07:25.417Z,929.20
2024-02-15T11:08:21.993Z,929.18
2024-02-15T11:09:22.086Z,929.18
2024-02-15T11:10:21.983Z,929.23
2024-02-15T11:11:22.157Z,929.22
2024-02-15T11:12:22.001Z,929.23
2024-02-15T11:13:21.980Z,929.23
2024-02-15T11:14:21.913Z,929.25
2024-02-15T11:15:21.998Z,929.24
2024-02-15T11:16:21.917Z,929.26
2024-02-15T11:17:21.922Z,929.26
2024-02-15T11:18:22.022Z,929.28
2024-02-15T11:19:22.547Z,929.28
2024-02-15T11:20:21.848Z,929.31
2024-02-15T11:21:22.026Z,929.35
2024-02-15T11:22:21.860Z,929.37
2024-02-15T11:24:21.944Z,929.39
2024-02-15T11:25:21.895Z,929.40
2024-02-15T11:26:21.784Z,929.40
2024-02-15T11:27:21.896Z,929.42
2024-02-15T11:28:21.781Z,929.42
2024-02-15T11:29:21.905Z,929.44
2024-02-15T11:30:22.042Z,929.44
2024-02-15T11:31:21.835Z,929.45
2024-02-15T11:32:21.726Z,929.45
2024-02-15T11:33:21.775Z,929.46
2024-02-15T11:34:21.826Z,929.48
2024-02-15T11:35:22.459Z,929.48
2024-02-15T11:36:21.748Z,929.51
2024-02-15T11:37:21.862Z,929.51
2024-02-15T11:38:22.358Z,929.52
2024-02-15T11:39:21.795Z,929.53
2024-02-15T11:40:21.719Z,929.53
2024-02-15T11:41:21.694Z,929.53
2024-02-15T11:42:21.658Z,929.56
2024-02-15T11:43:21.713Z,929.56
2024-02-15T11:44:21.596Z,929.56
2024-02-15T11:45:21.881Z,929.57
2024-02-15T11:46:21.962Z,929.59
2024-02-15T11:47:21.539Z,929.56
2024-02-15T11:48:21.671Z,929.56
2024-02-15T11:49:21.708Z,929.58
2024-02-15T11:50:21.761Z,929.57
2024-02-15T11:51:21.668Z,929.56
2024-02-15T11:52:21.661Z,929.59
2024-02-15T11:53:21.495Z,929.60
2024-02-15T11:54:21.644Z,929.58
2024-02-15T11:55:21.539Z,929.59
2024-02-15T11:56:21.880Z,929.60
2024-02-15T11:57:21.505Z,929.61
2024-02-15T11:58:21.627Z,929.59
2024-02-15T11:59:21.503Z,929.59
2024-02-15T12:00:21.446Z,929.60
2024-02-15T12:01:21.449Z,929.61
2024-02-15T12:02:22.037Z,929.59
2024-02-15T12:03:21.462Z,929.57
2024-02-15T12:04:21.629Z,929.60
2024-02-15T12:05:21.723Z,929.58
2024-02-15T12:06:21.495Z,929.60
2024-02-15T12:07:21.492Z,929.59
2024-02-15T12:08:21.386Z,929.59
2024-02-15T12:09:21.390Z,929.61
2024-02-15T12:10:21.509Z,929.60
2024-02-15T12:11:21.407Z,929.60
2024-02-15T12:12:21.401Z,929.62
2024-02-15T12:13:21.334Z,929.61
2024-02-15T12:14:21.330Z,929.63
2024-02-15T12:15:21.575Z,929.63
2024-02-15T12:16:21.536Z,929.63
2024-02-15T12:17:21.281Z,929.65
2024-02-15T12:18:21.394Z,929.65
2024-02-15T12:19:21.308Z,929.68
2024-02-15T12:20:21.227Z,929.69
2024-02-15T12:21:21.890Z,929.68
2024-02-15T12:22:21.373Z,929.67
2024-02-15T12:23:21.250Z,929.71
2024-02-15T12:24:21.247Z,929.73
2024-02-15T12:25:21.142Z,929.73
2024-02-15T12:26:21.287Z,929.72
2024-02-15T12:27:21.388Z,929.74
2024-02-15T12:28:21.354Z,929.75
2024-02-15T12:29:21.125Z,929.75